createdAt,value
2018-09-03T00:00:03.016Z,20.80
2018-09-03T00:02:31.417Z,20.80
2018-09-03T00:04:59.656Z,20.80
2018-09-03T00:07:28.048Z,20.80
2018-09-03T00:09:57.826Z,20.70
2018-09-03T00:12:26.107Z,20.70
2018-09-03T00:14:54.373Z,20.80
2018-09-03T00:17:22.495Z,20.80
2018-09-03T00:19:50.857Z,20.80
2018-09-03T00:22:19.044Z,20.80
2018-09-03T00:24:47.567Z,20.80
2018-09-03T00:27:15.710Z,20.80
2018-09-03T00:29:43.806Z,20.70
2018-09-03T00:32:17.455Z,20.70
2018-09-03T00:34:51.038Z,20.60
2018-09-03T00:37:24.763Z,20.60
2018-09-03T00:39:58.543Z,20.60
2018-09-03T00:42:32.073Z,20.60
2018-09-03T00:45:05.827Z,20.60
2018-09-03T00:47:33.973Z,20.60
2018-09-03T00:50:02.090Z,20.50
2018-09-03T00:52:31.018Z,20.50
2018-09-03T00:54:59.132Z,20.60
2018-09-03T00:57:27.344Z,20.60
2018-09-03T00:59:55.436Z,20.60
2018-09-03T01:02:23.834Z,20.50
2018-09-03T01:04:51.966Z,20.50
2018-09-03T01:07:20.120Z,20.50
2018-09-03T01:09:49.458Z,20.50
2018-09-03T01:12:17.708Z,20.50
2018-09-03T01:14:45.870Z,20.50
2018-09-03T01:17:14.132Z,20.50
2018-09-03T01:19:42.270Z,20.50
2018-09-03T01:22:11.876Z,20.50
2018-09-03T01:24:40.038Z,20.50
2018-09-03T01:27:08.222Z,20.50
2018-09-03T01:29:36.999Z,20.50
2018-09-03T01:32:05.449Z,20.50
2018-09-03T01:34:33.601Z,20.50
2018-09-03T01:37:01.980Z,20.50
2018-09-03T01:39:30.220Z,20.50
2018-09-03T01:41:58.363Z,20.50
2018-09-03T01:44:26.556Z,20.50
2018-09-03T01:46:54.673Z,20.40
2018-09-03T01:49:22.803Z,20.30
2018-09-03T01:51:50.966Z,20.40
2018-09-03T01:54:19.732Z,20.30
2018-09-03T01:56:47.879Z,20.30
2018-09-03T01:59:15.995Z,20.30
2018-09-03T02:01:44.118Z,20.30
2018-09-03T02:04:12.334Z,20.30
2018-09-03T02:06:40.571Z,20.30
2018-09-03T02:09:10.487Z,20.30
2018-09-03T02:11:38.888Z,20.30
2018-09-03T02:14:07.294Z,20.20
2018-09-03T02:16:36.017Z,20.20
2018-09-03T02:19:06.304Z,20.20
2018-09-03T02:21:34.826Z,20.20
2018-09-03T02:24:03.026Z,20.20
2018-09-03T02:26:31.731Z,20.20
2018-09-03T02:28:59.878Z,20.20
2018-09-03T02:31:27.991Z,20.20
2018-09-03T02:33:56.091Z,20.30
2018-09-03T02:36:25.893Z,20.20
2018-09-03T02:38:54.018Z,20.20
2018-09-03T02:41:22.173Z,20.10
2018-09-03T02:43:50.263Z,20.10
2018-09-03T02:46:18.369Z,20.10
2018-09-03T02:48:46.492Z,20.10
2018-09-03T02:51:15.562Z,20.10
2018-09-03T02:53:43.682Z,20.10
2018-09-03T02:56:11.829Z,20.10
2018-09-03T02:58:39.950Z,20.00
2018-09-03T03:01:08.076Z,20.00
2018-09-03T03:03:37.711Z,20.00
2018-09-03T03:06:05.873Z,20.00
2018-09-03T03:08:33.978Z,20.00
2018-09-03T03:11:02.104Z,20.00
2018-09-03T03:13:30.825Z,20.00
2018-09-03T03:15:59.027Z,19.90
2018-09-03T03:18:27.130Z,19.90
2018-09-03T03:20:55.291Z,19.90
2018-09-03T03:23:24.125Z,19.80
2018-09-03T03:25:52.273Z,19.80
2018-09-03T03:28:20.528Z,19.80
2018-09-03T03:30:48.919Z,19.70
2018-09-03T03:33:17.049Z,19.70
2018-09-03T03:35:45.435Z,19.70
2018-09-03T03:38:13.577Z,19.70
2018-09-03T03:40:41.815Z,19.70
2018-09-03T03:43:10.022Z,19.70
2018-09-03T03:45:38.265Z,19.60
2018-09-03T03:48:06.475Z,19.60
2018-09-03T03:50:34.714Z,19.60
2018-09-03T03:53:03.200Z,19.60
2018-09-03T03:55:31.365Z,19.50
2018-09-03T03:57:59.491Z,19.40
2018-09-03T04:00:27.843Z,19.40
2018-09-03T04:02:55.974Z,19.40
2018-09-03T04:05:25.256Z,19.30
2018-09-03T04:07:53.351Z,19.30
2018-09-03T04:10:22.341Z,19.20
2018-09-03T04:12:57.893Z,19.20
2018-09-03T04:15:26.063Z,19.20
2018-09-03T04:17:54.717Z,19.20
2018-09-03T04:20:22.893Z,19.10
2018-09-03T04:22:51.093Z,19.10
2018-09-03T04:25:19.191Z,19.10
2018-09-03T04:27:47.423Z,19.10
2018-09-03T04:30:15.529Z,19.00
2018-09-03T04:32:44.785Z,19.00
2018-09-03T04:35:15.195Z,18.90
2018-09-03T04:37:43.394Z,18.90
2018-09-03T04:40:11.690Z,19.40
2018-09-03T04:42:39.845Z,18.90
2018-09-03T04:45:07.959Z,18.90
2018-09-03T04:47:36.070Z,18.90
2018-09-03T04:50:04.306Z,18.90
2018-09-03T04:52:32.615Z,18.90
2018-09-03T04:55:01.277Z,18.90
2018-09-03T04:57:29.483Z,18.90
2018-09-03T04:59:57.734Z,18.90
2018-09-03T05:02:25.910Z,19.00
2018-09-03T05:04:54.042Z,19.00
2018-09-03T05:07:22.166Z,19.10
2018-09-03T05:09:50.366Z,19.10
2018-09-03T05:12:18.569Z,19.10
2018-09-03T05:14:46.885Z,19.10
2018-09-03T05:17:15.126Z,19.20
2018-09-03T05:19:43.403Z,19.20
2018-09-03T05:22:11.616Z,19.20
2018-09-03T05:24:40.117Z,19.30
2018-09-03T05:27:08.266Z,19.40
2018-09-03T05:29:36.433Z,19.40
2018-09-03T05:32:05.672Z,19.40
2018-09-03T05:34:33.943Z,19.50
2018-09-03T05:37:02.090Z,19.50
2018-09-03T05:39:30.229Z,19.60
2018-09-03T05:41:58.512Z,19.70
2018-09-03T05:44:26.760Z,19.70
2018-09-03T05:46:54.988Z,19.80
2018-09-03T05:49:23.322Z,19.80
2018-09-03T05:51:51.491Z,19.90
2018-09-03T05:54:19.745Z,20.10
2018-09-03T05:56:49.597Z,20.30
2018-09-03T05:59:18.365Z,20.50
2018-09-03T06:01:46.987Z,20.70
2018-09-03T06:04:15.184Z,20.80
2018-09-03T06:06:43.386Z,20.90
2018-09-03T06:09:12.703Z,21.00
2018-09-03T06:11:41.163Z,21.10
2018-09-03T06:14:09.453Z,21.30
2018-09-03T06:16:37.863Z,21.40
2018-09-03T06:19:06.103Z,21.50
2018-09-03T06:21:34.387Z,21.60
2018-09-03T06:24:02.761Z,21.70
2018-09-03T06:26:30.923Z,21.80
2018-09-03T06:28:59.009Z,21.80
2018-09-03T06:31:27.393Z,21.90
2018-09-03T06:33:56.129Z,21.90
2018-09-03T06:36:24.285Z,22.00
2018-09-03T06:38:52.474Z,22.10
2018-09-03T06:41:20.645Z,22.20
2018-09-03T06:43:49.539Z,22.20
2018-09-03T06:46:18.395Z,22.30
2018-09-03T06:48:53.418Z,22.40
2018-09-03T06:51:21.570Z,22.40
2018-09-03T06:53:49.741Z,22.60
2018-09-03T06:56:17.910Z,22.70
2018-09-03T06:58:47.139Z,22.80
2018-09-03T07:01:15.318Z,22.90
2018-09-03T07:03:44.204Z,23.00
2018-09-03T07:06:12.314Z,23.10
2018-09-03T07:08:42.058Z,23.10
2018-09-03T07:11:11.271Z,23.10
2018-09-03T07:13:39.499Z,23.10
2018-09-03T07:16:07.705Z,23.20
2018-09-03T07:18:35.964Z,23.30
2018-09-03T07:21:04.110Z,23.30
2018-09-03T07:23:33.751Z,23.40
2018-09-03T07:26:03.226Z,23.50
2018-09-03T07:28:31.635Z,23.40
2018-09-03T07:30:59.774Z,23.50
2018-09-03T07:33:28.160Z,23.60
2018-09-03T07:35:56.535Z,23.70
2018-09-03T07:38:25.047Z,23.60
2018-09-03T07:40:53.282Z,23.50
2018-09-03T07:43:21.507Z,23.40
2018-09-03T07:45:49.847Z,23.30
2018-09-03T07:48:19.049Z,23.30
2018-09-03T07:50:47.295Z,23.40
2018-09-03T07:53:15.501Z,23.50
2018-09-03T07:55:44.729Z,23.70
2018-09-03T07:58:12.937Z,24.00
2018-09-03T08:00:41.358Z,24.30
2018-09-03T08:03:09.760Z,24.50
2018-09-03T08:05:39.232Z,24.70
2018-09-03T08:08:07.523Z,24.90
2018-09-03T08:10:36.368Z,25.10
2018-09-03T08:13:04.511Z,25.10
2018-09-03T08:15:32.650Z,25.20
2018-09-03T08:18:00.825Z,25.30
2018-09-03T08:20:29.609Z,25.40
2018-09-03T08:22:57.820Z,25.30
2018-09-03T08:25:26.057Z,25.20
2018-09-03T08:27:54.829Z,25.30
2018-09-03T08:30:23.026Z,25.10
2018-09-03T08:32:51.326Z,24.70
2018-09-03T08:35:19.583Z,24.50
2018-09-03T08:37:47.903Z,24.30
2018-09-03T08:40:20.302Z,24.30
2018-09-03T08:42:48.885Z,24.10
2018-09-03T08:45:17.282Z,24.00
2018-09-03T08:47:45.968Z,23.90
2018-09-03T08:50:14.174Z,23.90
2018-09-03T08:52:42.352Z,24.00
2018-09-03T08:55:10.589Z,24.00
2018-09-03T08:57:38.724Z,24.10
2018-09-03T09:00:08.532Z,24.20
2018-09-03T09:02:36.717Z,24.30
2018-09-03T09:05:04.922Z,24.40
2018-09-03T09:07:34.335Z,24.60
2018-09-03T09:10:09.096Z,24.70
2018-09-03T09:12:37.622Z,24.80
2018-09-03T09:15:05.814Z,24.70
2018-09-03T09:17:34.512Z,24.60
2018-09-03T09:20:02.602Z,24.70
2018-09-03T09:22:30.744Z,24.70
2018-09-03T09:24:58.984Z,24.80
2018-09-03T09:27:27.100Z,24.80
2018-09-03T09:29:55.716Z,24.80
2018-09-03T09:32:25.802Z,24.90
2018-09-03T09:34:53.962Z,24.90
2018-09-03T09:37:22.074Z,25.00
2018-09-03T09:39:50.225Z,25.10
2018-09-03T09:42:18.378Z,25.20
2018-09-03T09:44:46.733Z,25.30
2018-09-03T09:47:16.079Z,25.30
2018-09-03T09:49:44.205Z,25.40
2018-09-03T09:52:12.373Z,25.40
2018-09-03T09:54:40.841Z,25.40
2018-09-03T09:57:09.048Z,25.50
2018-09-03T09:59:37.240Z,25.60
2018-09-03T10:02:06.847Z,25.70
2018-09-03T10:04:35.100Z,25.70
2018-09-03T10:07:03.245Z,25.80
2018-09-03T10:09:31.515Z,25.90
2018-09-03T10:11:59.695Z,25.90
2018-09-03T10:14:27.872Z,25.90
2018-09-03T10:16:56.257Z,25.90
2018-09-03T10:19:27.047Z,26.00
2018-09-03T10:21:55.322Z,26.10
2018-09-03T10:24:23.557Z,26.10
2018-09-03T10:26:51.789Z,26.10
2018-09-03T10:29:19.943Z,26.10
2018-09-03T10:31:48.243Z,26.20
2018-09-03T10:34:16.679Z,26.20
2018-09-03T10:36:44.858Z,26.20
2018-09-03T10:39:14.879Z,26.20
2018-09-03T10:41:43.097Z,26.30
2018-09-03T10:44:11.293Z,26.40
2018-09-03T10:46:39.457Z,26.50
2018-09-03T10:49:07.655Z,26.50
2018-09-03T10:51:35.885Z,26.60
2018-09-03T10:54:04.064Z,26.90
2018-09-03T10:56:32.182Z,27.00
2018-09-03T10:59:00.347Z,27.20
2018-09-03T11:01:28.589Z,27.40
2018-09-03T11:03:56.715Z,27.40
2018-09-03T11:06:24.853Z,27.40
2018-09-03T11:08:53.031Z,27.40
2018-09-03T11:11:21.188Z,27.40
2018-09-03T11:13:49.408Z,27.40
2018-09-03T11:16:17.702Z,27.40
2018-09-03T11:18:45.817Z,27.70
2018-09-03T11:21:14.211Z,27.90
2018-09-03T11:23:42.320Z,27.70
2018-09-03T11:26:10.571Z,27.60
2018-09-03T11:28:38.729Z,27.50
2018-09-03T11:31:06.867Z,27.40
2018-09-03T11:33:35.267Z,27.50
2018-09-03T11:36:03.447Z,27.50
2018-09-03T11:38:31.625Z,27.50
2018-09-03T11:40:59.892Z,27.50
2018-09-03T11:43:28.005Z,27.50
2018-09-03T11:45:56.126Z,27.40
2018-09-03T11:48:24.252Z,27.40
2018-09-03T11:50:52.397Z,27.30
2018-09-03T11:53:20.687Z,27.30
2018-09-03T11:55:49.115Z,27.30
2018-09-03T11:58:23.779Z,27.30
2018-09-03T12:00:56.190Z,27.30
2018-09-03T12:03:25.513Z,27.40
2018-09-03T12:05:53.826Z,27.30
2018-09-03T12:08:21.968Z,27.20
2018-09-03T12:10:52.213Z,27.10
2018-09-03T12:13:21.205Z,27.20
2018-09-03T12:16:24.524Z,27.20
2018-09-03T12:18:54.339Z,27.20
2018-09-03T12:21:22.507Z,27.20
2018-09-03T12:23:50.879Z,27.40
2018-09-03T12:26:19.034Z,27.50
2018-09-03T12:28:48.591Z,27.60
2018-09-03T12:31:16.808Z,27.70
2018-09-03T12:33:44.942Z,27.80
2018-09-03T12:36:13.202Z,27.80
2018-09-03T12:38:41.469Z,27.70
2018-09-03T12:41:09.612Z,27.80
2018-09-03T12:43:37.845Z,27.60
2018-09-03T12:46:08.947Z,27.40
2018-09-03T12:48:38.563Z,27.30
2018-09-03T12:51:09.340Z,27.30
2018-09-03T12:53:37.463Z,27.40
2018-09-03T12:56:07.097Z,27.50
2018-09-03T12:58:35.289Z,27.60
2018-09-03T13:01:03.927Z,27.60
2018-09-03T13:03:33.335Z,27.70
2018-09-03T13:06:01.513Z,27.60
2018-09-03T13:08:30.709Z,27.60
2018-09-03T13:10:58.819Z,27.60
2018-09-03T13:13:27.659Z,27.50
2018-09-03T13:15:55.871Z,27.40
2018-09-03T13:18:24.101Z,27.10
2018-09-03T13:20:52.292Z,27.10
2018-09-03T13:23:20.526Z,27.20
2018-09-03T13:25:48.671Z,27.20
2018-09-03T13:28:17.665Z,27.30
2018-09-03T13:30:47.724Z,27.30
2018-09-03T13:33:15.855Z,27.30
2018-09-03T13:35:44.128Z,27.30
2018-09-03T13:38:13.042Z,27.20
2018-09-03T13:40:41.260Z,27.30
2018-09-03T13:43:09.427Z,27.60
2018-09-03T13:45:37.803Z,27.90
2018-09-03T13:48:06.041Z,28.00
2018-09-03T13:50:34.237Z,28.00
2018-09-03T13:53:02.533Z,28.00
2018-09-03T13:55:30.986Z,27.80
2018-09-03T13:57:59.329Z,27.70
2018-09-03T14:00:27.546Z,27.60
2018-09-03T14:02:55.714Z,27.60
2018-09-03T14:05:24.375Z,27.50
2018-09-03T14:07:53.557Z,27.40
2018-09-03T14:10:21.713Z,27.40
2018-09-03T14:12:49.866Z,27.30
2018-09-03T14:15:18.166Z,27.30
2018-09-03T14:17:46.633Z,27.30
2018-09-03T14:20:14.975Z,27.30
2018-09-03T14:22:44.002Z,27.30
2018-09-03T14:25:12.221Z,27.30
2018-09-03T14:27:40.382Z,27.30
2018-09-03T14:30:08.663Z,27.20
2018-09-03T14:32:38.033Z,27.20
2018-09-03T14:35:06.179Z,27.20
2018-09-03T14:37:34.341Z,27.20
2018-09-03T14:40:02.583Z,27.20
2018-09-03T14:42:30.736Z,27.30
2018-09-03T14:44:59.192Z,27.20
2018-09-03T14:47:29.333Z,27.20
2018-09-03T14:49:58.419Z,27.20
2018-09-03T14:52:26.633Z,27.20
2018-09-03T14:54:54.782Z,27.20
2018-09-03T14:57:23.052Z,27.20
2018-09-03T14:59:51.251Z,27.20
2018-09-03T15:02:19.508Z,27.10
2018-09-03T15:04:47.635Z,27.10
2018-09-03T15:07:15.971Z,27.10
2018-09-03T15:09:44.133Z,27.10
2018-09-03T15:12:12.329Z,27.10
2018-09-03T15:14:40.526Z,27.00
2018-09-03T15:17:08.689Z,27.00
2018-09-03T15:19:36.931Z,27.00
2018-09-03T15:22:06.554Z,27.00
2018-09-03T15:24:34.954Z,27.00
2018-09-03T15:27:03.225Z,27.00
2018-09-03T15:29:31.407Z,27.00
2018-09-03T15:31:59.597Z,27.00
2018-09-03T15:34:27.738Z,26.90
2018-09-03T15:36:56.196Z,26.90
2018-09-03T15:39:24.383Z,26.90
2018-09-03T15:41:52.528Z,26.90
2018-09-03T15:44:20.791Z,26.90
2018-09-03T15:46:48.944Z,26.80
2018-09-03T15:49:17.119Z,26.80
2018-09-03T15:51:47.491Z,26.80
2018-09-03T15:54:17.405Z,26.80
2018-09-03T15:56:45.535Z,26.80
2018-09-03T15:59:13.925Z,26.80
2018-09-03T16:01:42.102Z,26.80
2018-09-03T16:04:11.100Z,26.70
2018-09-03T16:06:39.249Z,26.70
2018-09-03T16:09:09.154Z,26.70
2018-09-03T16:11:37.397Z,26.70
2018-09-03T16:14:06.395Z,26.60
2018-09-03T16:16:34.856Z,26.60
2018-09-03T16:19:04.733Z,26.50
2018-09-03T16:21:33.065Z,26.50
2018-09-03T16:24:01.263Z,26.50
2018-09-03T16:26:29.519Z,26.50
2018-09-03T16:28:58.779Z,26.40
2018-09-03T16:31:27.129Z,26.40
2018-09-03T16:33:56.358Z,26.40
2018-09-03T16:36:24.481Z,26.40
2018-09-03T16:38:52.827Z,26.30
2018-09-03T16:41:20.911Z,26.30
2018-09-03T16:43:49.065Z,26.20
2018-09-03T16:46:17.267Z,26.20
2018-09-03T16:48:47.031Z,26.10
2018-09-03T16:51:15.157Z,26.10
2018-09-03T16:53:43.381Z,26.10
2018-09-03T16:56:11.543Z,26.00
2018-09-03T16:58:39.928Z,25.90
2018-09-03T17:01:10.571Z,25.90
2018-09-03T17:03:39.269Z,25.90
2018-09-03T17:06:07.467Z,25.90
2018-09-03T17:08:35.792Z,25.70
2018-09-03T17:11:04.099Z,25.70
2018-09-03T17:13:32.300Z,25.70
2018-09-03T17:16:01.489Z,25.60
2018-09-03T17:18:29.648Z,25.50
2018-09-03T17:20:59.563Z,25.40
2018-09-03T17:23:27.876Z,25.30
2018-09-03T17:25:56.610Z,25.20
2018-09-03T17:28:24.757Z,25.10
2018-09-03T17:30:53.601Z,25.00
2018-09-03T17:33:22.467Z,25.00
2018-09-03T17:35:50.609Z,25.00
2018-09-03T17:38:19.688Z,25.00
2018-09-03T17:40:48.549Z,24.90
2018-09-03T17:43:17.699Z,24.90
2018-09-03T17:45:45.977Z,24.80
2018-09-03T17:48:14.076Z,24.70
2018-09-03T17:50:43.866Z,24.70
2018-09-03T17:53:12.247Z,24.60
2018-09-03T17:55:40.694Z,24.50
2018-09-03T17:58:08.906Z,24.50
2018-09-03T18:00:37.131Z,24.40
2018-09-03T18:03:05.543Z,24.30
2018-09-03T18:05:35.037Z,24.30
2018-09-03T18:08:03.227Z,24.30
2018-09-03T18:10:31.335Z,24.20
2018-09-03T18:12:59.524Z,24.10
2018-09-03T18:15:27.867Z,24.00
2018-09-03T18:17:56.052Z,24.00
2018-09-03T18:20:25.381Z,23.90
2018-09-03T18:22:53.770Z,23.90
2018-09-03T18:25:21.924Z,23.80
2018-09-03T18:27:50.087Z,23.70
2018-09-03T18:30:18.676Z,23.70
2018-09-03T18:32:47.124Z,23.60
2018-09-03T18:35:15.651Z,23.60
2018-09-03T18:37:43.820Z,23.60
2018-09-03T18:40:12.016Z,23.50
2018-09-03T18:42:40.218Z,23.50
2018-09-03T18:45:08.868Z,23.50
2018-09-03T18:47:37.108Z,23.50
2018-09-03T18:50:06.257Z,23.40
2018-09-03T18:52:34.478Z,23.30
2018-09-03T18:55:02.687Z,23.30
2018-09-03T18:57:32.710Z,23.20
2018-09-03T19:00:00.978Z,23.20
2018-09-03T19:02:29.077Z,23.10
2018-09-03T19:04:57.319Z,23.00
2018-09-03T19:07:26.405Z,23.00
2018-09-03T19:09:54.722Z,23.00
2018-09-03T19:12:22.896Z,23.00
2018-09-03T19:14:51.775Z,22.90
2018-09-03T19:17:20.858Z,22.90
2018-09-03T19:19:49.082Z,22.80
2018-09-03T19:22:17.418Z,22.80
2018-09-03T19:24:45.564Z,22.80
2018-09-03T19:27:13.757Z,22.70
2018-09-03T19:29:41.962Z,22.70
2018-09-03T19:32:10.147Z,22.60
2018-09-03T19:34:38.450Z,22.60
2018-09-03T19:37:06.663Z,22.50
2018-09-03T19:39:34.874Z,22.50
2018-09-03T19:42:03.137Z,22.50
2018-09-03T19:44:31.426Z,22.40
2018-09-03T19:46:59.606Z,22.40
2018-09-03T19:49:27.943Z,22.40
2018-09-03T19:51:57.095Z,22.30
2018-09-03T19:54:25.575Z,22.30
2018-09-03T19:56:53.753Z,22.20
2018-09-03T19:59:22.418Z,22.20
2018-09-03T20:01:50.638Z,22.20
2018-09-03T20:04:18.844Z,22.10
2018-09-03T20:06:47.132Z,22.10
2018-09-03T20:09:15.320Z,22.00
2018-09-03T20:11:44.971Z,22.00
2018-09-03T20:14:13.208Z,21.90
2018-09-03T20:16:41.478Z,21.90
2018-09-03T20:19:09.642Z,21.90
2018-09-03T20:21:37.848Z,21.90
2018-09-03T20:24:06.227Z,21.80
2018-09-03T20:26:34.433Z,21.70
2018-09-03T20:29:02.666Z,21.70
2018-09-03T20:31:31.795Z,21.70
2018-09-03T20:33:59.971Z,21.60
2018-09-03T20:36:28.241Z,21.60
2018-09-03T20:38:56.350Z,21.60
2018-09-03T20:41:24.497Z,21.50
2018-09-03T20:43:52.831Z,21.50
2018-09-03T20:46:21.039Z,21.40
2018-09-03T20:48:49.167Z,21.40
2018-09-03T20:51:17.308Z,21.30
2018-09-03T20:53:45.522Z,21.30
2018-09-03T20:56:15.483Z,21.30
2018-09-03T20:58:43.684Z,21.20
2018-09-03T21:01:11.976Z,21.20
2018-09-03T21:03:41.095Z,21.10
2018-09-03T21:06:09.297Z,21.10
2018-09-03T21:08:37.496Z,21.10
2018-09-03T21:11:05.920Z,21.00
2018-09-03T21:13:34.288Z,21.00
2018-09-03T21:16:02.605Z,21.00
2018-09-03T21:18:30.806Z,20.90
2018-09-03T21:20:59.003Z,20.90
2018-09-03T21:23:27.654Z,20.80
2018-09-03T21:25:55.820Z,20.80
2018-09-03T21:28:24.147Z,20.80
2018-09-03T21:30:52.379Z,20.70
2018-09-03T21:33:20.529Z,20.70
2018-09-03T21:35:49.538Z,20.70
2018-09-03T21:38:17.712Z,20.60
2018-09-03T21:40:45.949Z,20.60
2018-09-03T21:43:14.952Z,20.50
2018-09-03T21:45:43.137Z,20.50
2018-09-03T21:48:11.758Z,20.50
2018-09-03T21:50:39.959Z,20.50
2018-09-03T21:53:08.122Z,20.40
2018-09-03T21:55:37.091Z,20.40
2018-09-03T21:58:05.273Z,20.30
2018-09-03T22:00:33.437Z,20.30
2018-09-03T22:03:02.590Z,20.20
2018-09-03T22:05:30.718Z,20.20
2018-09-03T22:07:58.953Z,20.20
2018-09-03T22:10:27.200Z,20.10
2018-09-03T22:12:55.310Z,20.10
2018-09-03T22:15:23.474Z,20.10
2018-09-03T22:17:51.610Z,20.00
2018-09-03T22:20:19.759Z,20.00
2018-09-03T22:22:47.997Z,20.00
2018-09-03T22:25:16.236Z,19.90
2018-09-03T22:27:44.488Z,19.90
2018-09-03T22:30:12.743Z,19.90
2018-09-03T22:32:41.858Z,19.90
2018-09-03T22:35:10.100Z,19.80
2018-09-03T22:37:38.223Z,19.80
2018-09-03T22:40:07.278Z,19.80
2018-09-03T22:42:35.457Z,19.80
2018-09-03T22:45:05.188Z,19.80
2018-09-03T22:47:35.729Z,19.80
2018-09-03T22:50:03.855Z,19.70
2018-09-03T22:52:34.074Z,19.70
2018-09-03T22:55:02.227Z,19.70
2018-09-03T22:57:30.348Z,19.60
2018-09-03T22:59:59.052Z,19.60
2018-09-03T23:02:27.182Z,19.60
2018-09-03T23:04:55.282Z,19.60
2018-09-03T23:07:23.414Z,19.60
2018-09-03T23:09:51.558Z,19.60
2018-09-03T23:12:19.741Z,19.50
2018-09-03T23:14:48.993Z,19.50
2018-09-03T23:17:17.194Z,19.50
2018-09-03T23:19:45.331Z,19.40
2018-09-03T23:22:13.478Z,19.40
2018-09-03T23:24:41.878Z,19.40
2018-09-03T23:27:11.578Z,19.40
2018-09-03T23:29:39.742Z,19.40
2018-09-03T23:32:07.876Z,19.30
2018-09-03T23:34:36.056Z,19.30
2018-09-03T23:37:04.194Z,19.30
2018-09-03T23:39:32.464Z,19.30
2018-09-03T23:42:00.618Z,19.20
2018-09-03T23:44:28.950Z,19.20
2018-09-03T23:46:57.378Z,19.10
2018-09-03T23:49:25.988Z,19.10
2018-09-03T23:51:54.130Z,19.10
2018-09-03T23:54:22.887Z,19.10
2018-09-03T23:56:51.068Z,19.10
2018-09-03T23:59:19.224Z,19.10
